sensor_id;sensor_type;location;lat;lon;timestamp;P1;durP1;ratioP1;P2;durP2;ratioP2
5483;SDS011;2764;48.794;8.326;2023-03-20T00:00:15;6.80;;;6.07;;
5483;SDS011;2764;48.794;8.326;2023-03-20T00:01:18;10.90;;;6.28;;
5483;SDS011;2764;48.794;8.326;2023-03-20T00:02:22;8.38;;;7.57;;
5483;SDS011;2764;48.794;8.326;2023-03-20T00:03:24;8.45;;;7.65;;
5483;SDS011;2764;48.794;8.326;2023-03-20T00:04:25;8.27;;;7.30;;
5483;SDS011;2764;48.794;8.326;2023-03-20T00:05:27;7.50;;;6.80;;
5483;SDS011;2764;48.794;8.326;2023-03-20T00:06:30;9.48;;;7.82;;
5483;SDS011;2764;48.794;8.326;2023-03-20T00:07:32;8.52;;;7.45;;
5483;SDS011;2764;48.794;8.326;2023-03-20T00:08:34;7.85;;;7.15;;
5483;SDS011;2764;48.794;8.326;2023-03-20T00:09:36;11.23;;;7.95;;
5483;SDS011;2764;48.794;8.326;2023-03-20T00:10:38;18.90;;;6.80;;
5483;SDS011;2764;48.794;8.326;2023-03-20T00:11:47;8.82;;;7.82;;
5483;SDS011;2764;48.794;8.326;2023-03-20T00:12:49;8.20;;;7.60;;
5483;SDS011;2764;48.794;8.326;2023-03-20T00:13:52;8.18;;;7.53;;
5483;SDS011;2764;48.794;8.326;2023-03-20T00:14:54;7.97;;;7.15;;
5483;SDS011;2764;48.794;8.326;2023-03-20T00:15:56;6.82;;;6.32;;
5483;SDS011;2764;48.794;8.326;2023-03-20T00:16:57;6.32;;;5.80;;
5483;SDS011;2764;48.794;8.326;2023-03-20T00:17:59;7.20;;;6.55;;
5483;SDS011;2764;48.794;8.326;2023-03-20T00:19:01;5.78;;;5.32;;
5483;SDS011;2764;48.794;8.326;2023-03-20T00:20:03;6.45;;;5.93;;
5483;SDS011;2764;48.794;8.326;2023-03-20T00:21:07;5.28;;;4.90;;
5483;SDS011;2764;48.794;8.326;2023-03-20T00:22:12;9.32;;;5.38;;
5483;SDS011;2764;48.794;8.326;2023-03-20T00:23:13;9.85;;;5.35;;
5483;SDS011;2764;48.794;8.326;2023-03-20T00:24:15;6.90;;;6.40;;
5483;SDS011;2764;48.794;8.326;2023-03-20T00:25:22;7.43;;;6.20;;
5483;SDS011;2764;48.794;8.326;2023-03-20T00:26:26;6.78;;;6.18;;
5483;SDS011;2764;48.794;8.326;2023-03-20T00:27:28;6.60;;;6.15;;
5483;SDS011;2764;48.794;8.326;2023-03-20T00:28:37;8.57;;;5.95;;
5483;SDS011;2764;48.794;8.326;2023-03-20T00:29:40;6.53;;;5.50;;
5483;SDS011;2764;48.794;8.326;2023-03-20T00:30:43;5.88;;;5.28;;
5483;SDS011;2764;48.794;8.326;2023-03-20T00:31:44;5.85;;;5.35;;
5483;SDS011;2764;48.794;8.326;2023-03-20T00:32:46;5.40;;;5.00;;
5483;SDS011;2764;48.794;8.326;2023-03-20T00:33:48;6.80;;;5.05;;
5483;SDS011;2764;48.794;8.326;2023-03-20T00:34:50;4.70;;;4.32;;
5483;SDS011;2764;48.794;8.326;2023-03-20T00:35:51;5.00;;;4.50;;
5483;SDS011;2764;48.794;8.326;2023-03-20T00:36:53;8.82;;;4.07;;
5483;SDS011;2764;48.794;8.326;2023-03-20T00:37:55;4.78;;;4.38;;
5483;SDS011;2764;48.794;8.326;2023-03-20T00:38:58;4.32;;;4.00;;
5483;SDS011;2764;48.794;8.326;2023-03-20T00:39:59;4.20;;;3.90;;
5483;SDS011;2764;48.794;8.326;2023-03-20T00:41:01;6.97;;;4.82;;
5483;SDS011;2764;48.794;8.326;2023-03-20T00:42:03;9.98;;;4.18;;
5483;SDS011;2764;48.794;8.326;2023-03-20T00:43:08;6.85;;;4.90;;
5483;SDS011;2764;48.794;8.326;2023-03-20T00:45:24;6.10;;;4.68;;
5483;SDS011;2764;48.794;8.326;2023-03-20T00:46:26;5.32;;;5.00;;
5483;SDS011;2764;48.794;8.326;2023-03-20T00:47:28;6.22;;;5.72;;
5483;SDS011;2764;48.794;8.326;2023-03-20T00:48:30;6.20;;;5.70;;
5483;SDS011;2764;48.794;8.326;2023-03-20T00:49:33;8.95;;;4.53;;
5483;SDS011;2764;48.794;8.326;2023-03-20T00:50:35;6.07;;;5.60;;
5483;SDS011;2764;48.794;8.326;2023-03-20T00:51:37;7.38;;;5.50;;
5483;SDS011;2764;48.794;8.326;2023-03-20T00:52:40;10.73;;;5.20;;
5483;SDS011;2764;48.794;8.326;2023-03-20T00:53:41;7.10;;;4.82;;
5483;SDS011;2764;48.794;8.326;2023-03-20T00:54:43;7.03;;;4.68;;
5483;SDS011;2764;48.794;8.326;2023-03-20T00:55:44;4.57;;;4.07;;
5483;SDS011;2764;48.794;8.326;2023-03-20T00:56:56;5.20;;;4.70;;
5483;SDS011;2764;48.794;8.326;2023-03-20T00:58:00;9.43;;;4.82;;
5483;SDS011;2764;48.794;8.326;2023-03-20T00:59:02;4.53;;;4.22;;
5483;SDS011;2764;48.794;8.326;2023-03-20T01:00:05;5.05;;;4.65;;
5483;SDS011;2764;48.794;8.326;2023-03-20T01:01:07;5.43;;;4.85;;
5483;SDS011;2764;48.794;8.326;2023-03-20T01:02:09;5.18;;;4.43;;
5483;SDS011;2764;48.794;8.326;2023-03-20T01:03:15;4.72;;;4.35;;
5483;SDS011;2764;48.794;8.326;2023-03-20T01:04:18;4.72;;;4.43;;
5483;SDS011;2764;48.794;8.326;2023-03-20T01:05:20;15.18;;;5.53;;
5483;SDS011;2764;48.794;8.326;2023-03-20T01:06:22;5.97;;;4.60;;
5483;SDS011;2764;48.794;8.326;2023-03-20T01:07:24;4.45;;;4.05;;
5483;SDS011;2764;48.794;8.326;2023-03-20T01:08:25;4.03;;;3.72;;
5483;SDS011;2764;48.794;8.326;2023-03-20T01:09:27;6.20;;;3.55;;
5483;SDS011;2764;48.794;8.326;2023-03-20T01:10:29;3.80;;;3.50;;
5483;SDS011;2764;48.794;8.326;2023-03-20T01:11:32;5.15;;;3.55;;
5483;SDS011;2764;48.794;8.326;2023-03-20T01:12:34;3.53;;;3.22;;
5483;SDS011;2764;48.794;8.326;2023-03-20T01:13:36;4.00;;;3.80;;
5483;SDS011;2764;48.794;8.326;2023-03-20T01:14:39;4.05;;;3.75;;
5483;SDS011;2764;48.794;8.326;2023-03-20T01:15:40;3.70;;;3.40;;
5483;SDS011;2764;48.794;8.326;2023-03-20T01:16:42;3.38;;;3.10;;
5483;SDS011;2764;48.794;8.326;2023-03-20T01:17:44;5.10;;;4.60;;
5483;SDS011;2764;48.794;8.326;2023-03-20T01:18:47;3.83;;;3.58;;
5483;SDS011;2764;48.794;8.326;2023-03-20T01:19:49;3.50;;;3.33;;
5483;SDS011;2764;48.794;8.326;2023-03-20T01:20:50;4.03;;;3.40;;
5483;SDS011;2764;48.794;8.326;2023-03-20T01:21:55;2.40;;;2.30;;
5483;SDS011;2764;48.794;8.326;2023-03-20T01:22:57;3.20;;;3.00;;
5483;SDS011;2764;48.794;8.326;2023-03-20T01:23:58;3.92;;;3.63;;
5483;SDS011;2764;48.794;8.326;2023-03-20T01:25:00;4.30;;;3.90;;
5483;SDS011;2764;48.794;8.326;2023-03-20T01:26:02;4.82;;;3.17;;
5483;SDS011;2764;48.794;8.326;2023-03-20T01:27:04;3.58;;;3.28;;
5483;SDS011;2764;48.794;8.326;2023-03-20T01:28:13;4.25;;;3.85;;
5483;SDS011;2764;48.794;8.326;2023-03-20T01:30:19;7.20;;;4.95;;
5483;SDS011;2764;48.794;8.326;2023-03-20T01:31:21;4.90;;;4.25;;
5483;SDS011;2764;48.794;8.326;2023-03-20T01:32:23;3.80;;;3.00;;
5483;SDS011;2764;48.794;8.326;2023-03-20T01:33:24;5.30;;;3.83;;
5483;SDS011;2764;48.794;8.326;2023-03-20T01:34:28;3.42;;;3.22;;
5483;SDS011;2764;48.794;8.326;2023-03-20T01:35:29;3.95;;;3.55;;
5483;SDS011;2764;48.794;8.326;2023-03-20T01:36:31;4.28;;;2.95;;
5483;SDS011;2764;48.794;8.326;2023-03-20T01:37:32;3.25;;;3.05;;
5483;SDS011;2764;48.794;8.326;2023-03-20T01:38:34;3.30;;;3.00;;
5483;SDS011;2764;48.794;8.326;2023-03-20T01:39:36;11.45;;;7.85;;
5483;SDS011;2764;48.794;8.326;2023-03-20T01:41:40;22.35;;;10.93;;
5483;SDS011;2764;48.794;8.326;2023-03-20T01:42:42;13.60;;;7.35;;
5483;SDS011;2764;48.794;8.326;2023-03-20T01:43:44;9.02;;;4.97;;
5483;SDS011;2764;48.794;8.326;2023-03-20T01:44:46;7.60;;;4.70;;
5483;SDS011;2764;48.794;8.326;2023-03-20T01:45:59;5.15;;;4.15;;
5483;SDS011;2764;48.794;8.326;2023-03-20T01:47:02;4.30;;;3.72;;
5483;SDS011;2764;48.794;8.326;2023-03-20T01:48:12;4.30;;;3.72;;
5483;SDS011;2764;48.794;8.326;2023-03-20T01:50:22;4.03;;;3.67;;
5483;SDS011;2764;48.794;8.326;2023-03-20T01:51:24;7.53;;;3.80;;
5483;SDS011;2764;48.794;8.326;2023-03-20T01:52:26;5.95;;;3.60;;
5483;SDS011;2764;48.794;8.326;2023-03-20T01:53:29;18.45;;;8.82;;
5483;SDS011;2764;48.794;8.326;2023-03-20T01:54:32;11.18;;;6.88;;
5483;SDS011;2764;48.794;8.326;2023-03-20T01:55:35;10.60;;;6.75;;
5483;SDS011;2764;48.794;8.326;2023-03-20T01:56:43;20.02;;;10.10;;
5483;SDS011;2764;48.794;8.326;2023-03-20T01:57:47;17.77;;;10.60;;
5483;SDS011;2764;48.794;8.326;2023-03-20T01:58:50;17.17;;;6.57;;
5483;SDS011;2764;48.794;8.326;2023-03-20T01:59:55;14.13;;;6.40;;
5483;SDS011;2764;48.794;8.326;2023-03-20T02:00:58;6.20;;;4.95;;
5483;SDS011;2764;48.794;8.326;2023-03-20T02:02:00;18.40;;;4.18;;
5483;SDS011;2764;48.794;8.326;2023-03-20T02:03:02;5.43;;;4.05;;
5483;SDS011;2764;48.794;8.326;2023-03-20T02:04:04;10.75;;;4.70;;
5483;SDS011;2764;48.794;8.326;2023-03-20T02:05:07;4.15;;;3.20;;
5483;SDS011;2764;48.794;8.326;2023-03-20T02:06:10;4.00;;;3.70;;
5483;SDS011;2764;48.794;8.326;2023-03-20T02:07:12;4.13;;;3.83;;
5483;SDS011;2764;48.794;8.326;2023-03-20T02:08:19;5.90;;;3.97;;
5483;SDS011;2764;48.794;8.326;2023-03-20T02:09:23;3.95;;;3.50;;
5483;SDS011;2764;48.794;8.326;2023-03-20T02:10:24;2.40;;;2.30;;
5483;SDS011;2764;48.794;8.326;2023-03-20T02:11:26;6.35;;;2.50;;
5483;SDS011;2764;48.794;8.326;2023-03-20T02:12:29;2.65;;;2.42;;
5483;SDS011;2764;48.794;8.326;2023-03-20T02:13:32;2.35;;;2.25;;
5483;SDS011;2764;48.794;8.326;2023-03-20T02:14:34;3.88;;;2.42;;
5483;SDS011;2764;48.794;8.326;2023-03-20T02:15:51;2.85;;;2.65;;
5483;SDS011;2764;48.794;8.326;2023-03-20T02:16:53;2.50;;;2.40;;
5483;SDS011;2764;48.794;8.326;2023-03-20T02:17:55;3.78;;;2.15;;
5483;SDS011;2764;48.794;8.326;2023-03-20T02:18:56;3.00;;;2.80;;
5483;SDS011;2764;48.794;8.326;2023-03-20T02:20:03;2.90;;;2.15;;
5483;SDS011;2764;48.794;8.326;2023-03-20T02:31:59;3.95;;;3.20;;
5483;SDS011;2764;48.794;8.326;2023-03-20T02:33:08;3.75;;;3.42;;
5483;SDS011;2764;48.794;8.326;2023-03-20T02:42:11;4.40;;;3.95;;
5483;SDS011;2764;48.794;8.326;2023-03-20T02:47:26;6.93;;;4.72;;
5483;SDS011;2764;48.794;8.326;2023-03-20T02:48:37;5.15;;;4.65;;
5483;SDS011;2764;48.794;8.326;2023-03-20T02:50:42;7.60;;;5.60;;
5483;SDS011;2764;48.794;8.326;2023-03-20T02:51:16;5.70;;;4.72;;
5483;SDS011;2764;48.794;8.326;2023-03-20T02:59:14;8.90;;;5.30;;
5483;SDS011;2764;48.794;8.326;2023-03-20T03:00:35;5.28;;;4.82;;
5483;SDS011;2764;48.794;8.326;2023-03-20T03:01:40;6.40;;;5.80;;
5483;SDS011;2764;48.794;8.326;2023-03-20T03:02:56;6.22;;;4.93;;
5483;SDS011;2764;48.794;8.326;2023-03-20T03:04:22;5.32;;;4.93;;
5483;SDS011;2764;48.794;8.326;2023-03-20T03:05:24;6.25;;;5.70;;
5483;SDS011;2764;48.794;8.326;2023-03-20T03:06:28;8.73;;;5.45;;
5483;SDS011;2764;48.794;8.326;2023-03-20T03:07:31;6.55;;;5.28;;
5483;SDS011;2764;48.794;8.326;2023-03-20T03:08:36;5.60;;;5.10;;
5483;SDS011;2764;48.794;8.326;2023-03-20T03:09:47;5.15;;;4.75;;
5483;SDS011;2764;48.794;8.326;2023-03-20T03:10:53;5.38;;;4.50;;
5483;SDS011;2764;48.794;8.326;2023-03-20T03:11:58;6.25;;;3.90;;
5483;SDS011;2764;48.794;8.326;2023-03-20T03:13:01;3.92;;;3.63;;
5483;SDS011;2764;48.794;8.326;2023-03-20T03:14:05;4.13;;;3.75;;
5483;SDS011;2764;48.794;8.326;2023-03-20T03:16:24;4.53;;;4.13;;
5483;SDS011;2764;48.794;8.326;2023-03-20T03:17:27;4.60;;;4.30;;
5483;SDS011;2764;48.794;8.326;2023-03-20T03:18:30;5.25;;;3.83;;
5483;SDS011;2764;48.794;8.326;2023-03-20T03:19:35;5.47;;;4.13;;
5483;SDS011;2764;48.794;8.326;2023-03-20T03:20:37;7.38;;;4.40;;
5483;SDS011;2764;48.794;8.326;2023-03-20T03:21:39;4.78;;;3.90;;
5483;SDS011;2764;48.794;8.326;2023-03-20T03:22:41;5.40;;;4.18;;
5483;SDS011;2764;48.794;8.326;2023-03-20T03:23:46;6.05;;;4.30;;
5483;SDS011;2764;48.794;8.326;2023-03-20T03:24:50;5.00;;;4.50;;
5483;SDS011;2764;48.794;8.326;2023-03-20T03:25:52;4.47;;;4.07;;
5483;SDS011;2764;48.794;8.326;2023-03-20T03:26:58;4.25;;;3.88;;
5483;SDS011;2764;48.794;8.326;2023-03-20T03:28:06;4.35;;;3.97;;
5483;SDS011;2764;48.794;8.326;2023-03-20T03:29:10;6.05;;;4.20;;
5483;SDS011;2764;48.794;8.326;2023-03-20T03:30:18;10.35;;;4.35;;
5483;SDS011;2764;48.794;8.326;2023-03-20T03:31:20;5.80;;;5.03;;
5483;SDS011;2764;48.794;8.326;2023-03-20T03:32:28;5.03;;;4.65;;
5483;SDS011;2764;48.794;8.326;2023-03-20T03:33:31;6.88;;;4.65;;
5483;SDS011;2764;48.794;8.326;2023-03-20T03:34:34;6.25;;;5.65;;
5483;SDS011;2764;48.794;8.326;2023-03-20T03:35:38;8.25;;;5.82;;
5483;SDS011;2764;48.794;8.326;2023-03-20T03:39:05;7.72;;;6.25;;
5483;SDS011;2764;48.794;8.326;2023-03-20T03:43:18;6.13;;;5.63;;
5483;SDS011;2764;48.794;8.326;2023-03-20T03:43:52;5.00;;;4.70;;
5483;SDS011;2764;48.794;8.326;2023-03-20T03:46:00;5.10;;;4.70;;
5483;SDS011;2764;48.794;8.326;2023-03-20T03:48:10;6.97;;;4.95;;
5483;SDS011;2764;48.794;8.326;2023-03-20T03:49:24;5.50;;;4.90;;
5483;SDS011;2764;48.794;8.326;2023-03-20T03:50:42;4.85;;;4.50;;
5483;SDS011;2764;48.794;8.326;2023-03-20T03:51:49;6.43;;;5.00;;
5483;SDS011;2764;48.794;8.326;2023-03-20T03:52:52;4.93;;;4.50;;
5483;SDS011;2764;48.794;8.326;2023-03-20T03:53:58;4.35;;;4.00;;
5483;SDS011;2764;48.794;8.326;2023-03-20T03:55:20;3.95;;;3.72;;
5483;SDS011;2764;48.794;8.326;2023-03-20T03:56:23;8.15;;;4.40;;
5483;SDS011;2764;48.794;8.326;2023-03-20T03:57:27;5.38;;;4.90;;
5483;SDS011;2764;48.794;8.326;2023-03-20T03:58:30;10.27;;;4.50;;
5483;SDS011;2764;48.794;8.326;2023-03-20T03:59:35;4.60;;;4.20;;
5483;SDS011;2764;48.794;8.326;2023-03-20T04:00:39;3.53;;;3.25;;
5483;SDS011;2764;48.794;8.326;2023-03-20T04:01:41;5.47;;;4.90;;
5483;SDS011;2764;48.794;8.326;2023-03-20T04:02:45;4.80;;;4.50;;
5483;SDS011;2764;48.794;8.326;2023-03-20T04:03:49;4.32;;;4.00;;
5483;SDS011;2764;48.794;8.326;2023-03-20T04:04:51;4.07;;;3.78;;
5483;SDS011;2764;48.794;8.326;2023-03-20T04:05:54;3.88;;;3.63;;
5483;SDS011;2764;48.794;8.326;2023-03-20T04:06:57;4.15;;;3.80;;
5483;SDS011;2764;48.794;8.326;2023-03-20T04:08:00;5.70;;;4.10;;
5483;SDS011;2764;48.794;8.326;2023-03-20T04:09:02;3.70;;;3.50;;
5483;SDS011;2764;48.794;8.326;2023-03-20T04:10:03;4.88;;;4.40;;
5483;SDS011;2764;48.794;8.326;2023-03-20T04:11:06;5.18;;;4.25;;
5483;SDS011;2764;48.794;8.326;2023-03-20T04:12:25;6.68;;;4.50;;
5483;SDS011;2764;48.794;8.326;2023-03-20T04:13:29;12.50;;;4.53;;
5483;SDS011;2764;48.794;8.326;2023-03-20T04:14:31;8.35;;;4.82;;
5483;SDS011;2764;48.794;8.326;2023-03-20T04:15:33;4.85;;;4.55;;
5483;SDS011;2764;48.794;8.326;2023-03-20T04:16:35;5.28;;;4.70;;
5483;SDS011;2764;48.794;8.326;2023-03-20T04:17:37;8.65;;;4.40;;
5483;SDS011;2764;48.794;8.326;2023-03-20T04:18:39;4.80;;;3.70;;
5483;SDS011;2764;48.794;8.326;2023-03-20T04:19:41;7.20;;;4.75;;
5483;SDS011;2764;48.794;8.326;2023-03-20T04:20:43;4.88;;;4.57;;
5483;SDS011;2764;48.794;8.326;2023-03-20T04:21:45;10.90;;;5.13;;
5483;SDS011;2764;48.794;8.326;2023-03-20T04:22:46;4.40;;;4.10;;
5483;SDS011;2764;48.794;8.326;2023-03-20T04:23:48;6.15;;;5.65;;
5483;SDS011;2764;48.794;8.326;2023-03-20T04:24:50;5.00;;;4.60;;
5483;SDS011;2764;48.794;8.326;2023-03-20T04:25:51;5.90;;;5.22;;
5483;SDS011;2764;48.794;8.326;2023-03-20T04:26:53;6.00;;;5.40;;
5483;SDS011;2764;48.794;8.326;2023-03-20T04:27:55;5.88;;;5.38;;
5483;SDS011;2764;48.794;8.326;2023-03-20T04:28:56;4.45;;;4.00;;
5483;SDS011;2764;48.794;8.326;2023-03-20T04:29:58;11.00;;;5.70;;
5483;SDS011;2764;48.794;8.326;2023-03-20T04:31:01;5.40;;;4.40;;
5483;SDS011;2764;48.794;8.326;2023-03-20T04:32:02;6.60;;;5.65;;
5483;SDS011;2764;48.794;8.326;2023-03-20T04:33:04;6.50;;;5.90;;
5483;SDS011;2764;48.794;8.326;2023-03-20T04:34:06;5.05;;;4.75;;
5483;SDS011;2764;48.794;8.326;2023-03-20T04:35:08;5.82;;;5.32;;
5483;SDS011;2764;48.794;8.326;2023-03-20T04:36:10;5.97;;;5.57;;
5483;SDS011;2764;48.794;8.326;2023-03-20T04:37:12;6.10;;;5.57;;
5483;SDS011;2764;48.794;8.326;2023-03-20T04:38:14;6.45;;;5.95;;
5483;SDS011;2764;48.794;8.326;2023-03-20T04:39:15;6.35;;;5.85;;
5483;SDS011;2764;48.794;8.326;2023-03-20T04:40:17;6.50;;;5.90;;
5483;SDS011;2764;48.794;8.326;2023-03-20T04:41:19;7.53;;;6.65;;
5483;SDS011;2764;48.794;8.326;2023-03-20T04:42:21;7.50;;;6.80;;
5483;SDS011;2764;48.794;8.326;2023-03-20T04:43:23;9.10;;;8.10;;
5483;SDS011;2764;48.794;8.326;2023-03-20T04:44:24;7.13;;;6.55;;
5483;SDS011;2764;48.794;8.326;2023-03-20T04:45:26;6.32;;;5.82;;
5483;SDS011;2764;48.794;8.326;2023-03-20T04:46:27;6.30;;;5.70;;
5483;SDS011;2764;48.794;8.326;2023-03-20T04:47:29;7.78;;;7.03;;
5483;SDS011;2764;48.794;8.326;2023-03-20T04:48:30;7.75;;;6.70;;
5483;SDS011;2764;48.794;8.326;2023-03-20T04:49:32;7.15;;;5.32;;
5483;SDS011;2764;48.794;8.326;2023-03-20T04:50:34;4.70;;;4.30;;
5483;SDS011;2764;48.794;8.326;2023-03-20T04:51:35;8.73;;;4.70;;
5483;SDS011;2764;48.794;8.326;2023-03-20T04:52:37;4.50;;;4.20;;
5483;SDS011;2764;48.794;8.326;2023-03-20T04:53:39;5.70;;;5.30;;
5483;SDS011;2764;48.794;8.326;2023-03-20T04:54:40;5.38;;;4.97;;
5483;SDS011;2764;48.794;8.326;2023-03-20T04:55:45;5.80;;;5.20;;
5483;SDS011;2764;48.794;8.326;2023-03-20T04:56:46;5.90;;;5.43;;
5483;SDS011;2764;48.794;8.326;2023-03-20T04:57:48;7.73;;;6.13;;
5483;SDS011;2764;48.794;8.326;2023-03-20T04:58:50;7.30;;;5.55;;
5483;SDS011;2764;48.794;8.326;2023-03-20T04:59:52;8.27;;;6.10;;
5483;SDS011;2764;48.794;8.326;2023-03-20T05:00:53;6.88;;;6.28;;
5483;SDS011;2764;48.794;8.326;2023-03-20T05:01:56;10.30;;;6.17;;
5483;SDS011;2764;48.794;8.326;2023-03-20T05:02:57;7.25;;;5.68;;
5483;SDS011;2764;48.794;8.326;2023-03-20T05:03:59;5.53;;;5.10;;
5483;SDS011;2764;48.794;8.326;2023-03-20T05:05:01;6.00;;;5.50;;
5483;SDS011;2764;48.794;8.326;2023-03-20T05:06:03;7.63;;;5.47;;
5483;SDS011;2764;48.794;8.326;2023-03-20T05:07:05;6.55;;;5.95;;
5483;SDS011;2764;48.794;8.326;2023-03-20T05:08:07;5.72;;;5.40;;
5483;SDS011;2764;48.794;8.326;2023-03-20T05:09:09;6.40;;;5.80;;
5483;SDS011;2764;48.794;8.326;2023-03-20T05:10:11;5.57;;;5.13;;
5483;SDS011;2764;48.794;8.326;2023-03-20T05:11:13;6.78;;;6.22;;
5483;SDS011;2764;48.794;8.326;2023-03-20T05:12:15;6.97;;;5.07;;
5483;SDS011;2764;48.794;8.326;2023-03-20T05:13:17;5.72;;;5.25;;
5483;SDS011;2764;48.794;8.326;2023-03-20T05:14:19;8.32;;;6.15;;
5483;SDS011;2764;48.794;8.326;2023-03-20T05:15:20;7.53;;;6.75;;
5483;SDS011;2764;48.794;8.326;2023-03-20T05:16:22;5.20;;;4.80;;
5483;SDS011;2764;48.794;8.326;2023-03-20T05:17:24;7.32;;;6.15;;
5483;SDS011;2764;48.794;8.326;2023-03-20T05:18:25;6.85;;;6.00;;
5483;SDS011;2764;48.794;8.326;2023-03-20T05:19:27;6.80;;;6.25;;
5483;SDS011;2764;48.794;8.326;2023-03-20T05:20:28;7.07;;;5.97;;
5483;SDS011;2764;48.794;8.326;2023-03-20T05:21:30;8.50;;;7.40;;
5483;SDS011;2764;48.794;8.326;2023-03-20T05:22:32;9.65;;;8.65;;
5483;SDS011;2764;48.794;8.326;2023-03-20T05:23:33;8.48;;;7.60;;
5483;SDS011;2764;48.794;8.326;2023-03-20T05:24:35;8.70;;;7.80;;
5483;SDS011;2764;48.794;8.326;2023-03-20T05:25:37;8.73;;;7.88;;
5483;SDS011;2764;48.794;8.326;2023-03-20T05:26:38;9.07;;;8.10;;
5483;SDS011;2764;48.794;8.326;2023-03-20T05:27:40;8.45;;;7.75;;
5483;SDS011;2764;48.794;8.326;2023-03-20T05:28:42;11.68;;;9.32;;
5483;SDS011;2764;48.794;8.326;2023-03-20T05:29:43;11.55;;;10.15;;
5483;SDS011;2764;48.794;8.326;2023-03-20T05:30:45;13.02;;;11.68;;
5483;SDS011;2764;48.794;8.326;2023-03-20T05:31:47;15.70;;;12.48;;
5483;SDS011;2764;48.794;8.326;2023-03-20T05:32:49;15.38;;;11.95;;
5483;SDS011;2764;48.794;8.326;2023-03-20T05:33:52;12.63;;;11.32;;
5483;SDS011;2764;48.794;8.326;2023-03-20T05:34:54;12.63;;;11.32;;
5483;SDS011;2764;48.794;8.326;2023-03-20T05:35:56;17.30;;;11.32;;
5483;SDS011;2764;48.794;8.326;2023-03-20T05:36:57;15.20;;;10.43;;
5483;SDS011;2764;48.794;8.326;2023-03-20T05:38:00;12.80;;;11.50;;
5483;SDS011;2764;48.794;8.326;2023-03-20T05:39:01;12.13;;;10.75;;
5483;SDS011;2764;48.794;8.326;2023-03-20T05:40:03;13.13;;;11.73;;
5483;SDS011;2764;48.794;8.326;2023-03-20T05:41:05;15.18;;;12.73;;
5483;SDS011;2764;48.794;8.326;2023-03-20T05:42:07;17.02;;;12.45;;
5483;SDS011;2764;48.794;8.326;2023-03-20T05:43:09;15.65;;;13.10;;
5483;SDS011;2764;48.794;8.326;2023-03-20T05:44:11;17.83;;;14.38;;
5483;SDS011;2764;48.794;8.326;2023-03-20T05:45:12;22.15;;;15.40;;
5483;SDS011;2764;48.794;8.326;2023-03-20T05:46:15;19.73;;;14.40;;
5483;SDS011;2764;48.794;8.326;2023-03-20T05:47:17;18.30;;;13.07;;
5483;SDS011;2764;48.794;8.326;2023-03-20T05:48:19;15.60;;;13.07;;
5483;SDS011;2764;48.794;8.326;2023-03-20T05:49:21;15.75;;;13.10;;
5483;SDS011;2764;48.794;8.326;2023-03-20T05:50:22;18.05;;;14.25;;
5483;SDS011;2764;48.794;8.326;2023-03-20T05:51:24;15.68;;;13.18;;
5483;SDS011;2764;48.794;8.326;2023-03-20T05:52:26;15.70;;;13.15;;
5483;SDS011;2764;48.794;8.326;2023-03-20T05:53:27;19.17;;;15.27;;
5483;SDS011;2764;48.794;8.326;2023-03-20T05:54:29;18.60;;;14.85;;
5483;SDS011;2764;48.794;8.326;2023-03-20T05:55:30;20.85;;;16.13;;
5483;SDS011;2764;48.794;8.326;2023-03-20T05:56:33;18.73;;;15.13;;
5483;SDS011;2764;48.794;8.326;2023-03-20T05:57:35;18.33;;;15.02;;
5483;SDS011;2764;48.794;8.326;2023-03-20T05:58:37;15.43;;;13.43;;
5483;SDS011;2764;48.794;8.326;2023-03-20T05:59:38;16.30;;;13.07;;
5483;SDS011;2764;48.794;8.326;2023-03-20T06:00:40;16.10;;;12.93;;
5483;SDS011;2764;48.794;8.326;2023-03-20T06:01:41;18.10;;;14.52;;
5483;SDS011;2764;48.794;8.326;2023-03-20T06:02:43;18.75;;;16.23;;
5483;SDS011;2764;48.794;8.326;2023-03-20T06:03:47;21.08;;;17.10;;
5483;SDS011;2764;48.794;8.326;2023-03-20T06:04:49;18.17;;;15.35;;
5483;SDS011;2764;48.794;8.326;2023-03-20T06:05:51;25.88;;;16.75;;
5483;SDS011;2764;48.794;8.326;2023-03-20T06:06:52;19.45;;;15.63;;
5483;SDS011;2764;48.794;8.326;2023-03-20T06:07:54;16.90;;;14.93;;
5483;SDS011;2764;48.794;8.326;2023-03-20T06:08:55;18.92;;;14.50;;
5483;SDS011;2764;48.794;8.326;2023-03-20T06:09:57;23.70;;;18.15;;
5483;SDS011;2764;48.794;8.326;2023-03-20T06:10:59;17.88;;;15.98;;
5483;SDS011;2764;48.794;8.326;2023-03-20T06:12:00;16.42;;;14.68;;
5483;SDS011;2764;48.794;8.326;2023-03-20T06:13:02;22.70;;;16.70;;
5483;SDS011;2764;48.794;8.326;2023-03-20T06:14:04;21.87;;;17.10;;
5483;SDS011;2764;48.794;8.326;2023-03-20T06:15:05;16.38;;;14.68;;
5483;SDS011;2764;48.794;8.326;2023-03-20T06:16:08;22.08;;;15.77;;
5483;SDS011;2764;48.794;8.326;2023-03-20T06:17:10;19.93;;;15.07;;
5483;SDS011;2764;48.794;8.326;2023-03-20T06:18:12;16.50;;;14.07;;
5483;SDS011;2764;48.794;8.326;2023-03-20T06:19:14;13.23;;;11.83;;
5483;SDS011;2764;48.794;8.326;2023-03-20T06:20:16;12.82;;;11.10;;
5483;SDS011;2764;48.794;8.326;2023-03-20T06:21:17;13.07;;;11.73;;
5483;SDS011;2764;48.794;8.326;2023-03-20T06:22:19;12.33;;;11.03;;
5483;SDS011;2764;48.794;8.326;2023-03-20T06:23:21;11.43;;;9.70;;
5483;SDS011;2764;48.794;8.326;2023-03-20T06:24:22;16.90;;;11.00;;
5483;SDS011;2764;48.794;8.326;2023-03-20T06:25:24;11.30;;;10.20;;
5483;SDS011;2764;48.794;8.326;2023-03-20T06:26:26;13.95;;;9.85;;
5483;SDS011;2764;48.794;8.326;2023-03-20T06:27:28;13.57;;;11.20;;
5483;SDS011;2764;48.794;8.326;2023-03-20T06:28:31;16.42;;;11.32;;
5483;SDS011;2764;48.794;8.326;2023-03-20T06:29:33;14.15;;;12.57;;
5483;SDS011;2764;48.794;8.326;2023-03-20T06:30:35;12.52;;;11.20;;
5483;SDS011;2764;48.794;8.326;2023-03-20T06:31:36;12.63;;;11.32;;
5483;SDS011;2764;48.794;8.326;2023-03-20T06:32:38;11.60;;;10.40;;
5483;SDS011;2764;48.794;8.326;2023-03-20T06:33:40;13.10;;;10.75;;
5483;SDS011;2764;48.794;8.326;2023-03-20T06:34:42;11.13;;;10.02;;
5483;SDS011;2764;48.794;8.326;2023-03-20T06:35:44;10.65;;;9.52;;
5483;SDS011;2764;48.794;8.326;2023-03-20T06:36:46;11.25;;;10.13;;
5483;SDS011;2764;48.794;8.326;2023-03-20T06:37:48;11.55;;;10.35;;
5483;SDS011;2764;48.794;8.326;2023-03-20T06:38:51;11.77;;;10.27;;
5483;SDS011;2764;48.794;8.326;2023-03-20T06:39:52;10.40;;;9.30;;
5483;SDS011;2764;48.794;8.326;2023-03-20T06:40:54;10.48;;;9.38;;
5483;SDS011;2764;48.794;8.326;2023-03-20T06:41:56;10.40;;;9.35;;
5483;SDS011;2764;48.794;8.326;2023-03-20T06:42:57;10.57;;;9.32;;
5483;SDS011;2764;48.794;8.326;2023-03-20T06:43:59;10.35;;;8.60;;
5483;SDS011;2764;48.794;8.326;2023-03-20T06:45:00;9.50;;;8.60;;
5483;SDS011;2764;48.794;8.326;2023-03-20T06:46:02;9.73;;;8.18;;
5483;SDS011;2764;48.794;8.326;2023-03-20T06:47:04;9.75;;;8.57;;
5483;SDS011;2764;48.794;8.326;2023-03-20T06:48:06;8.67;;;7.80;;
5483;SDS011;2764;48.794;8.326;2023-03-20T06:49:08;8.30;;;7.20;;
5483;SDS011;2764;48.794;8.326;2023-03-20T06:50:10;12.52;;;8.48;;
5483;SDS011;2764;48.794;8.326;2023-03-20T06:51:12;8.20;;;7.40;;
5483;SDS011;2764;48.794;8.326;2023-03-20T06:52:17;8.18;;;7.47;;
5483;SDS011;2764;48.794;8.326;2023-03-20T06:53:20;8.93;;;7.90;;
5483;SDS011;2764;48.794;8.326;2023-03-20T06:54:22;8.43;;;7.33;;
5483;SDS011;2764;48.794;8.326;2023-03-20T06:55:24;8.30;;;7.50;;
5483;SDS011;2764;48.794;8.326;2023-03-20T06:56:25;8.60;;;7.70;;
5483;SDS011;2764;48.794;8.326;2023-03-20T06:57:27;8.50;;;7.60;;
5483;SDS011;2764;48.794;8.326;2023-03-20T06:58:28;8.63;;;7.77;;
5483;SDS011;2764;48.794;8.326;2023-03-20T06:59:30;7.70;;;6.90;;
5483;SDS011;2764;48.794;8.326;2023-03-20T07:00:32;9.00;;;6.50;;
5483;SDS011;2764;48.794;8.326;2023-03-20T07:01:34;7.63;;;7.00;;
5483;SDS011;2764;48.794;8.326;2023-03-20T07:02:36;8.00;;;6.33;;
5483;SDS011;2764;48.794;8.326;2023-03-20T07:03:38;7.93;;;7.13;;
5483;SDS011;2764;48.794;8.326;2023-03-20T07:04:40;6.93;;;6.32;;
5483;SDS011;2764;48.794;8.326;2023-03-20T07:05:42;6.50;;;5.90;;
5483;SDS011;2764;48.794;8.326;2023-03-20T07:06:43;6.07;;;5.57;;
5483;SDS011;2764;48.794;8.326;2023-03-20T07:07:45;7.27;;;6.63;;
5483;SDS011;2764;48.794;8.326;2023-03-20T07:08:47;8.23;;;5.73;;
5483;SDS011;2764;48.794;8.326;2023-03-20T07:09:49;6.33;;;5.70;;
5483;SDS011;2764;48.794;8.326;2023-03-20T07:10:51;5.70;;;5.30;;
5483;SDS011;2764;48.794;8.326;2023-03-20T07:11:52;6.53;;;5.75;;